createdAt,value
2023-04-16T00:02:13.772Z,24.00
2023-04-16T00:04:41.296Z,25.10
2023-04-16T00:07:08.753Z,21.53
2023-04-16T00:09:36.130Z,23.67
2023-04-16T00:12:03.980Z,22.53
2023-04-16T00:14:31.341Z,21.30
2023-04-16T00:16:58.674Z,24.90
2023-04-16T00:19:26.033Z,25.07
2023-04-16T00:21:53.398Z,22.40
2023-04-16T00:24:20.888Z,24.20
2023-04-16T00:26:48.260Z,24.20
2023-04-16T00:29:15.628Z,23.63
2023-04-16T00:31:42.928Z,24.27
2023-04-16T00:34:10.234Z,22.83
2023-04-16T00:36:37.609Z,27.97
2023-04-16T00:39:05.059Z,25.20
2023-04-16T00:41:32.408Z,25.30
2023-04-16T00:43:59.728Z,25.90
2023-04-16T00:46:27.220Z,28.27
2023-04-16T00:48:54.743Z,28.80
2023-04-16T00:51:22.828Z,27.97
2023-04-16T00:53:50.537Z,27.87
2023-04-16T00:56:18.460Z,24.80
2023-04-16T00:58:45.752Z,25.70
2023-04-16T01:01:14.274Z,28.57
2023-04-16T01:03:43.412Z,29.70
2023-04-16T01:06:11.379Z,27.43
2023-04-16T01:08:39.017Z,28.73
2023-04-16T01:11:06.495Z,28.03
2023-04-16T01:13:34.227Z,30.77
2023-04-16T01:16:01.847Z,28.30
2023-04-16T01:18:29.179Z,27.70
2023-04-16T01:20:56.472Z,33.43
2023-04-16T01:23:23.782Z,33.43
2023-04-16T01:25:51.149Z,30.00
2023-04-16T01:28:18.516Z,34.23
2023-04-16T01:30:45.957Z,27.70
2023-04-16T01:33:14.102Z,33.53
2023-04-16T01:35:42.129Z,31.30
2023-04-16T01:38:09.956Z,34.63
2023-04-16T01:40:37.823Z,31.27
2023-04-16T01:43:05.295Z,37.77
2023-04-16T01:45:33.102Z,30.77
2023-04-16T01:48:00.676Z,30.40
2023-04-16T01:50:28.314Z,33.40
2023-04-16T01:52:55.702Z,36.27
2023-04-16T01:55:23.139Z,33.50
2023-04-16T01:57:51.505Z,32.73
2023-04-16T02:00:18.968Z,28.87
2023-04-16T02:02:46.657Z,35.57
2023-04-16T02:05:14.064Z,34.37
2023-04-16T02:07:41.451Z,31.20
2023-04-16T02:10:10.056Z,37.00
2023-04-16T02:12:37.375Z,39.90
2023-04-16T02:15:05.303Z,37.73
2023-04-16T02:17:32.776Z,38.77
2023-04-16T02:20:01.759Z,35.87
2023-04-16T02:22:29.152Z,37.43
2023-04-16T02:24:56.514Z,39.03
2023-04-16T02:27:23.810Z,37.50
2023-04-16T02:29:51.124Z,34.17
2023-04-16T02:32:18.428Z,34.37
2023-04-16T02:34:45.793Z,37.00
2023-04-16T02:37:14.734Z,37.23
2023-04-16T02:39:42.732Z,35.37
2023-04-16T02:42:10.551Z,36.77
2023-04-16T02:44:37.920Z,34.33
2023-04-16T02:47:05.325Z,38.37
2023-04-16T02:49:32.688Z,31.73
2023-04-16T02:52:00.054Z,32.07
2023-04-16T02:54:27.436Z,36.00
2023-04-16T02:56:54.799Z,41.13
2023-04-16T02:59:22.291Z,35.77
2023-04-16T03:01:49.837Z,35.73
2023-04-16T03:04:17.387Z,32.67
2023-04-16T03:06:44.707Z,36.73
2023-04-16T03:09:12.517Z,32.83
2023-04-16T03:11:40.016Z,29.07
2023-04-16T03:14:07.375Z,37.03
2023-04-16T03:16:35.087Z,30.40
2023-04-16T03:19:02.388Z,36.17
2023-04-16T03:21:29.690Z,29.87
2023-04-16T03:23:57.068Z,34.80
2023-04-16T03:26:24.463Z,31.60
2023-04-16T03:28:51.818Z,28.77
2023-04-16T03:31:19.215Z,34.50
2023-04-16T03:33:46.558Z,31.90
2023-04-16T03:36:13.942Z,34.77
2023-04-16T03:38:41.332Z,33.23
2023-04-16T03:41:08.689Z,31.40
2023-04-16T03:43:36.062Z,31.00
2023-04-16T03:46:03.478Z,34.47
2023-04-16T03:48:30.867Z,35.53
2023-04-16T03:50:58.299Z,31.40
2023-04-16T03:53:25.715Z,32.73
2023-04-16T03:55:53.340Z,37.50
2023-04-16T03:58:20.922Z,36.40
2023-04-16T04:00:48.296Z,37.10
2023-04-16T04:03:18.963Z,29.63
2023-04-16T04:05:46.641Z,36.20
2023-04-16T04:08:14.007Z,33.50
2023-04-16T04:10:41.302Z,35.07
2023-04-16T04:13:08.686Z,32.50
2023-04-16T04:15:36.357Z,31.37
2023-04-16T04:18:03.805Z,31.97
2023-04-16T04:20:31.213Z,35.60
2023-04-16T04:22:58.653Z,31.13
2023-04-16T04:25:26.091Z,33.50
2023-04-16T04:27:53.403Z,34.20
2023-04-16T04:30:21.015Z,38.27
2023-04-16T04:32:48.472Z,34.57
2023-04-16T04:35:16.032Z,34.40
2023-04-16T04:37:43.410Z,32.50
2023-04-16T04:40:11.120Z,35.77
2023-04-16T04:42:38.584Z,31.77
2023-04-16T04:45:06.467Z,31.77
2023-04-16T04:47:33.815Z,31.50
2023-04-16T04:50:01.149Z,35.27
2023-04-16T04:52:28.447Z,35.83
2023-04-16T04:54:56.167Z,35.13
2023-04-16T04:57:23.482Z,36.30
2023-04-16T04:59:50.856Z,38.97
2023-04-16T05:02:18.227Z,31.90
2023-04-16T05:04:45.716Z,36.20
2023-04-16T05:07:13.014Z,34.57
2023-04-16T05:09:40.379Z,38.07
2023-04-16T05:12:07.783Z,31.00
2023-04-16T05:14:36.138Z,37.27
2023-04-16T05:17:03.699Z,40.13
2023-04-16T05:19:31.334Z,33.23
2023-04-16T05:21:58.713Z,33.57
2023-04-16T05:24:26.042Z,35.83
2023-04-16T05:26:53.441Z,33.33
2023-04-16T05:29:20.785Z,33.87
2023-04-16T05:31:48.169Z,36.10
2023-04-16T05:34:15.757Z,34.87
2023-04-16T05:36:43.174Z,32.33
2023-04-16T05:39:11.172Z,37.53
2023-04-16T05:41:38.640Z,36.77
2023-04-16T05:44:06.193Z,36.90
2023-04-16T05:46:33.685Z,35.87
2023-04-16T05:49:01.131Z,35.67
2023-04-16T05:51:28.513Z,35.93
2023-04-16T05:53:55.900Z,40.57
2023-04-16T05:56:23.259Z,35.70
2023-04-16T05:58:50.659Z,39.70
2023-04-16T06:01:18.615Z,33.87
2023-04-16T06:03:46.185Z,33.17
2023-04-16T06:06:13.641Z,32.87
2023-04-16T06:08:41.026Z,36.17
2023-04-16T06:11:08.404Z,36.17
2023-04-16T06:13:35.950Z,37.23
2023-04-16T06:16:03.323Z,34.10
2023-04-16T06:18:30.756Z,36.40
2023-04-16T06:20:59.760Z,34.33
2023-04-16T06:23:27.082Z,35.80
2023-04-16T06:25:54.466Z,37.53
2023-04-16T06:28:21.921Z,35.93
2023-04-16T06:30:49.281Z,34.00
2023-04-16T06:33:17.071Z,35.90
2023-04-16T06:35:44.449Z,37.80
2023-04-16T06:38:11.878Z,34.07
2023-04-16T06:40:39.224Z,36.10
2023-04-16T06:43:06.713Z,34.43
2023-04-16T06:45:34.549Z,31.60
2023-04-16T06:48:03.143Z,31.60
2023-04-16T06:50:30.884Z,30.43
2023-04-16T06:52:58.273Z,31.80
2023-04-16T06:55:25.633Z,35.20
2023-04-16T06:57:53.022Z,28.50
2023-04-16T07:00:20.402Z,26.57
2023-04-16T07:02:47.919Z,27.90
2023-04-16T07:05:15.379Z,25.53
2023-04-16T07:07:42.741Z,27.40
2023-04-16T07:10:10.518Z,26.13
2023-04-16T07:12:37.896Z,26.20
2023-04-16T07:15:05.955Z,28.80
2023-04-16T07:17:33.349Z,25.37
2023-04-16T07:20:00.862Z,27.70
2023-04-16T07:22:28.227Z,27.50
2023-04-16T07:24:56.284Z,25.77
2023-04-16T07:27:23.655Z,28.77
2023-04-16T07:29:51.034Z,29.53
2023-04-16T07:32:18.488Z,30.63
2023-04-16T07:34:45.879Z,30.10
2023-04-16T07:37:13.256Z,35.80
2023-04-16T07:39:40.715Z,33.60
2023-04-16T07:42:08.081Z,31.20
2023-04-16T07:44:35.563Z,34.50
2023-04-16T07:47:05.276Z,34.30
2023-04-16T07:49:31.926Z,28.87
2023-04-16T07:51:59.312Z,32.20
2023-04-16T07:54:28.493Z,31.70
2023-04-16T07:56:55.696Z,31.87
2023-04-16T07:59:24.268Z,31.10
2023-04-16T08:01:53.593Z,34.37
2023-04-16T08:04:22.797Z,31.33
2023-04-16T08:06:51.229Z,31.87
2023-04-16T08:09:20.704Z,35.00
2023-04-16T08:11:49.052Z,34.70
2023-04-16T08:14:16.917Z,32.53
2023-04-16T08:16:44.258Z,36.70
2023-04-16T08:19:11.751Z,36.70
2023-04-16T08:21:39.397Z,30.97
2023-04-16T08:24:06.915Z,35.80
2023-04-16T08:26:34.226Z,35.83
2023-04-16T08:29:01.628Z,34.60
2023-04-16T08:31:29.053Z,37.70
2023-04-16T08:33:56.482Z,34.90
2023-04-16T08:36:23.858Z,35.27
2023-04-16T08:38:51.992Z,40.17
2023-04-16T08:41:21.007Z,32.30
2023-04-16T08:43:49.926Z,37.60
2023-04-16T08:46:17.861Z,38.60
2023-04-16T08:48:46.768Z,38.10
2023-04-16T08:51:15.320Z,40.27
2023-04-16T08:53:44.161Z,42.87
2023-04-16T08:56:12.346Z,37.57
2023-04-16T08:58:40.076Z,39.70
2023-04-16T09:01:08.978Z,39.60
2023-04-16T09:03:36.936Z,38.60
2023-04-16T09:06:04.878Z,39.37
2023-04-16T09:08:32.638Z,36.97
2023-04-16T09:11:00.018Z,37.63
2023-04-16T09:13:27.404Z,38.77
2023-04-16T09:15:56.860Z,39.20
2023-04-16T09:18:24.699Z,42.13
2023-04-16T09:20:52.545Z,42.50
2023-04-16T09:23:19.923Z,39.83
2023-04-16T09:25:47.299Z,41.37
2023-04-16T09:28:16.287Z,39.80
2023-04-16T09:30:43.666Z,39.70
2023-04-16T09:33:20.038Z,42.50
2023-04-16T09:35:48.893Z,36.20
2023-04-16T09:38:16.446Z,42.13
2023-04-16T09:40:43.893Z,33.40
2023-04-16T09:43:14.666Z,33.80
2023-04-16T09:45:55.209Z,42.70
2023-04-16T09:48:30.347Z,37.80
2023-04-16T09:50:58.257Z,41.60
2023-04-16T09:53:27.510Z,38.07
2023-04-16T09:56:02.146Z,41.40
2023-04-16T09:58:29.812Z,36.60
2023-04-16T10:01:03.768Z,36.47
2023-04-16T10:03:35.116Z,36.50
2023-04-16T10:06:19.448Z,41.00
2023-04-16T10:08:50.578Z,43.33
2023-04-16T10:11:18.563Z,39.47
2023-04-16T10:13:46.224Z,35.70
2023-04-16T10:16:14.730Z,38.30
2023-04-16T10:18:42.957Z,34.80
2023-04-16T10:21:15.190Z,36.20
2023-04-16T10:23:44.107Z,35.90
2023-04-16T10:26:11.542Z,37.20
2023-04-16T10:28:39.604Z,41.40
2023-04-16T10:31:08.492Z,40.93
2023-04-16T10:33:36.894Z,37.77
2023-04-16T10:36:09.342Z,37.87
2023-04-16T10:38:38.270Z,40.17
2023-04-16T10:41:06.232Z,46.30
2023-04-16T10:43:46.438Z,41.67
2023-04-16T10:46:24.112Z,39.77
2023-04-16T10:48:53.072Z,38.70
2023-04-16T10:51:31.228Z,43.17
2023-04-16T10:54:00.121Z,41.10
2023-04-16T10:56:28.039Z,38.80
2023-04-16T10:58:56.186Z,42.93
2023-04-16T11:01:40.166Z,46.13
2023-04-16T11:04:24.049Z,45.33
2023-04-16T11:07:10.888Z,39.40
2023-04-16T11:09:49.488Z,37.40
2023-04-16T11:12:19.732Z,41.50
2023-04-16T11:14:48.313Z,44.57
2023-04-16T11:17:16.001Z,38.63
2023-04-16T11:19:43.821Z,44.73
2023-04-16T11:22:12.830Z,43.67
2023-04-16T11:24:42.778Z,44.00
2023-04-16T11:27:11.170Z,49.00
2023-04-16T11:29:38.635Z,41.40
2023-04-16T11:32:06.075Z,43.93
2023-04-16T11:34:33.455Z,43.00
2023-04-16T11:37:03.482Z,41.47
2023-04-16T11:39:31.022Z,44.77
2023-04-16T11:41:58.450Z,41.03
2023-04-16T11:44:28.007Z,42.87
2023-04-16T11:46:55.438Z,36.07
2023-04-16T11:49:34.509Z,39.70
2023-04-16T11:52:01.584Z,39.80
2023-04-16T11:54:30.593Z,39.33
2023-04-16T11:56:57.991Z,35.60
2023-04-16T11:59:25.371Z,35.03
2023-04-16T12:01:59.071Z,33.23
2023-04-16T12:04:27.402Z,35.53
2023-04-16T12:07:13.654Z,37.73
2023-04-16T12:09:42.937Z,36.00
2023-04-16T12:12:26.141Z,35.33
2023-04-16T12:14:54.339Z,37.47
2023-04-16T12:17:21.952Z,36.10
2023-04-16T12:19:51.434Z,31.20
2023-04-16T12:22:19.123Z,32.60
2023-04-16T12:24:46.801Z,30.13
2023-04-16T12:27:15.864Z,30.57
2023-04-16T12:29:43.230Z,35.53
2023-04-16T12:32:23.358Z,29.90
2023-04-16T12:34:51.778Z,29.30
2023-04-16T12:37:19.171Z,30.47
2023-04-16T12:39:47.980Z,29.13
2023-04-16T12:42:15.583Z,30.93
2023-04-16T12:44:42.953Z,30.73
2023-04-16T12:47:10.459Z,26.17
2023-04-16T12:49:37.839Z,30.57
2023-04-16T12:52:06.171Z,28.47
2023-04-16T12:54:33.545Z,33.43
2023-04-16T12:57:00.945Z,29.90
2023-04-16T12:59:28.380Z,28.43
2023-04-16T13:01:55.970Z,28.60
2023-04-16T13:04:25.512Z,28.67
2023-04-16T13:06:52.491Z,27.50
2023-04-16T13:09:20.044Z,26.53
2023-04-16T13:11:47.419Z,27.50
2023-04-16T13:14:14.814Z,26.17
2023-04-16T13:16:42.205Z,27.80
2023-04-16T13:19:09.850Z,24.63
2023-04-16T13:21:37.582Z,25.53
2023-04-16T13:24:05.086Z,23.17
2023-04-16T13:26:32.520Z,24.50
2023-04-16T13:28:59.888Z,24.13
2023-04-16T13:31:27.380Z,22.67
2023-04-16T13:33:55.053Z,23.67
2023-04-16T13:36:22.512Z,23.17
2023-04-16T13:38:49.954Z,23.30
2023-04-16T13:41:17.334Z,21.83
2023-04-16T13:43:44.730Z,23.27
2023-04-16T13:46:12.467Z,21.83
2023-04-16T13:48:39.901Z,21.67
2023-04-16T13:51:08.100Z,32.63
2023-04-16T13:53:35.494Z,19.10
2023-04-16T13:56:03.592Z,19.03
2023-04-16T13:58:30.993Z,17.37
2023-04-16T14:00:58.478Z,18.37
2023-04-16T14:03:26.897Z,19.13
2023-04-16T14:05:54.362Z,18.60
2023-04-16T14:08:22.222Z,20.00
2023-04-16T14:10:49.603Z,19.50
2023-04-16T14:13:16.995Z,20.50
2023-04-16T14:15:49.256Z,18.43
2023-04-16T14:18:17.465Z,18.40
2023-04-16T14:20:45.423Z,18.23
2023-04-16T14:23:14.328Z,18.77
2023-04-16T14:25:43.054Z,19.20
2023-04-16T14:28:13.640Z,19.07
2023-04-16T14:30:41.383Z,19.13
2023-04-16T14:33:08.850Z,18.87
2023-04-16T14:35:36.456Z,20.80
2023-04-16T14:38:03.994Z,18.30
2023-04-16T14:40:31.546Z,18.83
2023-04-16T14:42:59.731Z,19.37
2023-04-16T14:45:30.363Z,23.70
2023-04-16T14:47:58.111Z,19.10
2023-04-16T14:50:26.481Z,15.83
2023-04-16T14:52:54.478Z,17.37
2023-04-16T14:55:22.420Z,18.87
2023-04-16T14:57:50.045Z,17.80
2023-04-16T15:00:18.803Z,18.37
2023-04-16T15:02:47.934Z,16.40
2023-04-16T15:05:15.397Z,17.40
2023-04-16T15:07:42.775Z,20.37
2023-04-16T15:10:10.631Z,18.10
2023-04-16T15:12:38.322Z,19.50
2023-04-16T15:15:06.943Z,23.43
2023-04-16T15:17:34.381Z,19.20
2023-04-16T15:20:01.784Z,21.30
2023-04-16T15:22:29.162Z,19.80
2023-04-16T15:24:56.608Z,19.20
2023-04-16T15:27:24.017Z,19.07
2023-04-16T15:29:53.160Z,19.13
2023-04-16T15:32:20.598Z,18.97
2023-04-16T15:34:47.935Z,22.67
2023-04-16T15:37:15.905Z,22.50
2023-04-16T15:39:44.407Z,20.60
2023-04-16T15:42:11.864Z,21.33
2023-04-16T15:44:39.384Z,22.83
2023-04-16T15:47:08.325Z,23.60
2023-04-16T15:49:36.250Z,19.03
2023-04-16T15:52:03.728Z,22.80
2023-04-16T15:54:31.835Z,23.30
2023-04-16T15:56:59.250Z,19.97
2023-04-16T15:59:26.892Z,20.50
2023-04-16T16:01:54.499Z,23.80
2023-04-16T16:04:22.700Z,22.10
2023-04-16T16:06:50.925Z,22.50
2023-04-16T16:09:19.498Z,21.87
2023-04-16T16:11:47.458Z,21.90
2023-04-16T16:14:16.804Z,21.80
2023-04-16T16:16:44.014Z,22.13
2023-04-16T16:19:12.329Z,25.23
2023-04-16T16:21:39.737Z,25.50
2023-04-16T16:24:07.588Z,23.90
2023-04-16T16:26:34.967Z,27.70
2023-04-16T16:29:02.471Z,24.03
2023-04-16T16:31:30.297Z,25.67
2023-04-16T16:33:57.698Z,25.50
2023-04-16T16:36:26.403Z,25.50
2023-04-16T16:38:54.655Z,25.93
2023-04-16T16:41:22.291Z,27.57
2023-04-16T16:43:50.242Z,25.70
2023-04-16T16:46:17.664Z,29.07
2023-04-16T16:48:45.389Z,24.40
2023-04-16T16:51:14.463Z,26.47
2023-04-16T16:53:41.805Z,24.60
2023-04-16T16:56:09.190Z,25.57
2023-04-16T16:58:36.645Z,25.53
2023-04-16T17:01:04.080Z,26.93
2023-04-16T17:03:31.649Z,25.10
2023-04-16T17:05:59.886Z,30.40
2023-04-16T17:08:27.949Z,24.97
2023-04-16T17:10:55.339Z,26.60
2023-04-16T17:13:24.286Z,33.47
2023-04-16T17:15:51.676Z,28.47
2023-04-16T17:18:19.073Z,27.67
2023-04-16T17:20:46.455Z,27.20
2023-04-16T17:23:14.022Z,25.27
2023-04-16T17:25:41.429Z,28.13
2023-04-16T17:28:08.828Z,27.10
2023-04-16T17:30:36.300Z,27.20
2023-04-16T17:33:04.390Z,30.53
2023-04-16T17:35:31.741Z,28.93
2023-04-16T17:37:59.113Z,27.30
2023-04-16T17:40:26.516Z,27.83
2023-04-16T17:42:53.900Z,27.93
2023-04-16T17:45:21.287Z,29.07
2023-04-16T17:47:48.771Z,26.10
2023-04-16T17:50:16.180Z,28.13
2023-04-16T17:52:43.829Z,28.40
2023-04-16T17:55:11.984Z,32.07
2023-04-16T17:57:39.425Z,26.10
2023-04-16T18:00:08.919Z,26.27
2023-04-16T18:02:36.326Z,28.70
2023-04-16T18:05:03.920Z,26.37
2023-04-16T18:07:31.292Z,28.40
2023-04-16T18:09:58.689Z,29.27
2023-04-16T18:12:26.070Z,27.37
2023-04-16T18:14:53.455Z,31.83
2023-04-16T18:17:22.498Z,30.33
2023-04-16T18:19:49.878Z,30.70
2023-04-16T18:22:17.279Z,25.20
2023-04-16T18:24:44.652Z,28.03
2023-04-16T18:27:12.523Z,26.77
2023-04-16T18:29:40.662Z,28.53
2023-04-16T18:32:11.685Z,27.33
2023-04-16T18:34:37.980Z,29.27
2023-04-16T18:37:06.630Z,28.03
2023-04-16T18:39:34.294Z,26.80
2023-04-16T18:42:01.748Z,28.97
2023-04-16T18:44:29.129Z,27.73
2023-04-16T18:46:56.593Z,25.90
2023-04-16T18:49:24.172Z,28.03
2023-04-16T18:51:51.632Z,29.00
2023-04-16T18:54:20.206Z,25.80
2023-04-16T18:56:47.571Z,27.00
2023-04-16T18:59:15.021Z,27.73
2023-04-16T19:01:42.401Z,27.10
2023-04-16T19:04:09.789Z,25.77
2023-04-16T19:06:37.211Z,25.70
2023-04-16T19:09:04.588Z,28.10
2023-04-16T19:11:31.978Z,26.20
2023-04-16T19:14:01.020Z,27.33
2023-04-16T19:16:28.418Z,30.20
2023-04-16T19:18:56.068Z,24.37
2023-04-16T19:21:23.435Z,25.80
2023-04-16T19:23:50.834Z,26.37
2023-04-16T19:26:18.205Z,25.40
2023-04-16T19:28:45.858Z,24.73
2023-04-16T19:31:13.279Z,31.13
2023-04-16T19:33:41.038Z,26.87
2023-04-16T19:36:08.429Z,24.87
2023-04-16T19:38:35.825Z,22.90
2023-04-16T19:41:03.234Z,21.97
2023-04-16T19:43:30.984Z,24.07
2023-04-16T19:45:58.793Z,24.10
2023-04-16T19:48:26.212Z,23.67
2023-04-16T19:50:53.599Z,21.67
2023-04-16T19:53:21.657Z,22.83
2023-04-16T19:55:49.090Z,22.30
2023-04-16T19:58:16.540Z,22.50
2023-04-16T20:00:43.981Z,22.73
2023-04-16T20:03:11.428Z,23.13
2023-04-16T20:05:39.356Z,20.53
2023-04-16T20:08:06.809Z,22.27
2023-04-16T20:10:34.259Z,21.00
2023-04-16T20:13:01.651Z,21.10
2023-04-16T20:15:28.971Z,21.37
2023-04-16T20:17:56.484Z,21.57
2023-04-16T20:20:24.779Z,20.67
2023-04-16T20:22:52.098Z,20.87
2023-04-16T20:25:19.642Z,22.83
2023-04-16T20:27:47.163Z,24.97
2023-04-16T20:30:14.683Z,21.90
2023-04-16T20:32:42.137Z,23.70
2023-04-16T20:35:10.888Z,20.80
2023-04-16T20:37:38.675Z,19.40
2023-04-16T20:40:13.590Z,19.37
2023-04-16T20:42:41.071Z,20.50
2023-04-16T20:45:09.450Z,22.70
2023-04-16T20:47:36.897Z,20.27
2023-04-16T20:50:04.334Z,20.70
2023-04-16T20:52:32.397Z,20.80
2023-04-16T20:54:59.799Z,20.77
2023-04-16T20:57:28.039Z,18.70
2023-04-16T20:59:55.501Z,20.90
2023-04-16T21:02:23.978Z,20.93
2023-04-16T21:04:51.797Z,19.53
2023-04-16T21:07:19.329Z,19.10
2023-04-16T21:09:46.660Z,19.00
2023-04-16T21:12:14.017Z,21.50
2023-04-16T21:14:41.342Z,21.20
2023-04-16T21:17:08.712Z,18.87
2023-04-16T21:19:36.040Z,19.73
2023-04-16T21:22:03.776Z,21.07
2023-04-16T21:24:32.283Z,20.33
2023-04-16T21:26:59.683Z,18.40
2023-04-16T21:29:27.090Z,21.07
2023-04-16T21:31:55.492Z,22.63
2023-04-16T21:34:23.036Z,22.07
2023-04-16T21:36:50.487Z,19.00
2023-04-16T21:39:19.551Z,18.87
2023-04-16T21:41:46.935Z,19.90
2023-04-16T21:44:15.228Z,19.07
2023-04-16T21:46:42.606Z,20.57
2023-04-16T21:49:10.103Z,19.83
2023-04-16T21:51:40.039Z,19.80
2023-04-16T21:54:06.968Z,22.60
2023-04-16T21:56:34.354Z,20.77
2023-04-16T21:59:01.931Z,18.03
2023-04-16T22:01:29.382Z,19.77
2023-04-16T22:03:56.782Z,18.27
2023-04-16T22:06:24.241Z,18.63
2023-04-16T22:08:54.156Z,20.00
2023-04-16T22:11:22.298Z,19.17
2023-04-16T22:13:49.637Z,19.47
2023-04-16T22:16:17.055Z,20.83
2023-04-16T22:18:44.978Z,19.67
2023-04-16T22:21:12.343Z,17.67
2023-04-16T22:23:39.743Z,18.00
2023-04-16T22:26:08.077Z,20.30
2023-04-16T22:28:35.481Z,19.40
2023-04-16T22:31:02.880Z,18.80
2023-04-16T22:33:30.836Z,19.80
2023-04-16T22:35:59.714Z,17.50
2023-04-16T22:38:27.084Z,19.50
2023-04-16T22:40:54.465Z,19.93
2023-04-16T22:43:21.838Z,21.40
2023-04-16T22:45:49.185Z,19.90
2023-04-16T22:48:17.125Z,21.90
2023-04-16T22:50:50.822Z,20.03
2023-04-16T22:53:18.206Z,21.23
2023-04-16T22:55:45.731Z,21.50
2023-04-16T22:58:13.109Z,19.70
2023-04-16T23:00:40.494Z,21.17
2023-04-16T23:03:07.995Z,22.53
2023-04-16T23:05:35.472Z,21.93
2023-04-16T23:08:02.849Z,20.47
2023-04-16T23:10:30.241Z,22.40
2023-04-16T23:12:57.611Z,25.33
2023-04-16T23:15:25.128Z,25.73
2023-04-16T23:17:52.567Z,23.73
2023-04-16T23:20:20.092Z,25.63
2023-04-16T23:22:47.569Z,25.17
2023-04-16T23:25:15.389Z,27.73
2023-04-16T23:27:42.774Z,21.10
2023-04-16T23:30:10.397Z,26.40
2023-04-16T23:32:37.854Z,25.50
2023-04-16T23:35:05.443Z,26.97
2023-04-16T23:37:32.845Z,28.40
2023-04-16T23:40:00.293Z,29.63
2023-04-16T23:42:27.704Z,42.43
2023-04-16T23:44:55.136Z,31.50
2023-04-16T23:47:23.085Z,30.20
2023-04-16T23:49:50.517Z,32.00
2023-04-16T23:52:17.910Z,30.70
2023-04-16T23:54:45.298Z,31.80
2023-04-16T23:57:12.671Z,31.20
2023-04-16T23:59:39.991Z,29.13
